sensor_id;sensor_type;location;lat;lon;timestamp;pressure;altitude;pressure_sealevel;temperature;humidity
55347;BME280;41218;55.700;38.270;2022-09-16T00:04:29;98459.72;;;8.37;68.07
55347;BME280;41218;55.700;38.270;2022-09-16T00:09:29;98466.06;;;8.37;67.81
55347;BME280;41218;55.700;38.270;2022-09-16T00:14:30;98468.41;;;8.35;68.13
55347;BME280;41218;55.700;38.270;2022-09-16T00:19:31;98468.78;;;8.34;68.12
55347;BME280;41218;55.700;38.270;2022-09-16T00:24:32;98458.91;;;8.29;68.32
55347;BME280;41218;55.700;38.270;2022-09-16T00:29:32;98444.75;;;8.23;67.94
55347;BME280;41218;55.700;38.270;2022-09-16T00:34:33;98461.25;;;8.27;68.29
55347;BME280;41218;55.700;38.270;2022-09-16T00:39:34;98460.84;;;8.25;68.23
55347;BME280;41218;55.700;38.270;2022-09-16T00:49:53;98465.97;;;8.19;67.95
55347;BME280;41218;55.700;38.270;2022-09-16T00:54:56;98469.09;;;8.18;67.95
55347;BME280;41218;55.700;38.270;2022-09-16T00:59:57;98456.50;;;8.20;67.91
55347;BME280;41218;55.700;38.270;2022-09-16T01:05:06;98466.28;;;8.11;67.76
55347;BME280;41218;55.700;38.270;2022-09-16T01:10:08;98467.84;;;8.08;67.78
55347;BME280;41218;55.700;38.270;2022-09-16T01:15:09;98460.72;;;8.00;67.82
55347;BME280;41218;55.700;38.270;2022-09-16T01:31:20;98463.44;;;7.93;68.04
55347;BME280;41218;55.700;38.270;2022-09-16T01:36:55;98463.78;;;7.88;67.86
55347;BME280;41218;55.700;38.270;2022-09-16T01:42:24;98455.16;;;7.89;68.02
55347;BME280;41218;55.700;38.270;2022-09-16T01:58:32;98461.09;;;7.95;68.33
55347;BME280;41218;55.700;38.270;2022-09-16T02:03:36;98450.50;;;7.97;68.28
55347;BME280;41218;55.700;38.270;2022-09-16T02:08:53;98451.72;;;8.03;68.32
55347;BME280;41218;55.700;38.270;2022-09-16T02:19:05;98450.19;;;8.13;68.68
55347;BME280;41218;55.700;38.270;2022-09-16T02:24:12;98456.50;;;8.20;68.75
55347;BME280;41218;55.700;38.270;2022-09-16T02:29:21;98455.34;;;8.21;68.52
55347;BME280;41218;55.700;38.270;2022-09-16T02:34:31;98452.25;;;8.30;69.05
55347;BME280;41218;55.700;38.270;2022-09-16T02:39:36;98452.25;;;8.30;68.84
55347;BME280;41218;55.700;38.270;2022-09-16T02:44:38;98453.03;;;8.34;68.51
55347;BME280;41218;55.700;38.270;2022-09-16T02:50:00;98451.88;;;8.39;68.60
55347;BME280;41218;55.700;38.270;2022-09-16T02:55:36;98455.47;;;8.43;68.77
55347;BME280;41218;55.700;38.270;2022-09-16T03:00:45;98445.97;;;8.37;68.43
55347;BME280;41218;55.700;38.270;2022-09-16T03:21:50;98440.16;;;8.46;69.14
55347;BME280;41218;55.700;38.270;2022-09-16T03:37:17;98452.00;;;8.60;68.86
55347;BME280;41218;55.700;38.270;2022-09-16T03:42:19;98446.50;;;8.60;68.75
55347;BME280;41218;55.700;38.270;2022-09-16T03:47:20;98437.44;;;8.63;68.76
55347;BME280;41218;55.700;38.270;2022-09-16T03:52:21;98425.66;;;8.67;68.53
55347;BME280;41218;55.700;38.270;2022-09-16T03:57:21;98429.22;;;8.71;69.08
55347;BME280;41218;55.700;38.270;2022-09-16T04:02:23;98424.13;;;8.76;69.10
55347;BME280;41218;55.700;38.270;2022-09-16T04:07:23;98431.97;;;8.81;69.61
55347;BME280;41218;55.700;38.270;2022-09-16T04:12:24;98433.56;;;8.90;70.41
55347;BME280;41218;55.700;38.270;2022-09-16T04:17:24;98428.47;;;8.99;70.29
55347;BME280;41218;55.700;38.270;2022-09-16T04:22:29;98427.69;;;9.09;71.06
55347;BME280;41218;55.700;38.270;2022-09-16T04:27:29;98422.59;;;9.15;70.97
55347;BME280;41218;55.700;38.270;2022-09-16T04:32:30;98412.75;;;9.25;71.29
55347;BME280;41218;55.700;38.270;2022-09-16T04:37:30;98422.97;;;9.38;71.85
55347;BME280;41218;55.700;38.270;2022-09-16T04:42:31;98426.91;;;9.48;72.38
55347;BME280;41218;55.700;38.270;2022-09-16T04:47:31;98424.97;;;9.59;71.85
55347;BME280;41218;55.700;38.270;2022-09-16T04:52:32;98421.78;;;9.68;72.21
55347;BME280;41218;55.700;38.270;2022-09-16T04:57:33;98430.03;;;9.82;72.28
55347;BME280;41218;55.700;38.270;2022-09-16T05:02:34;98427.25;;;9.93;72.64
55347;BME280;41218;55.700;38.270;2022-09-16T05:07:34;98430.41;;;10.06;72.58
55347;BME280;41218;55.700;38.270;2022-09-16T05:12:35;98407.50;;;10.09;72.58
55347;BME280;41218;55.700;38.270;2022-09-16T05:17:35;98410.63;;;10.22;72.90
55347;BME280;41218;55.700;38.270;2022-09-16T05:22:36;98409.41;;;10.34;73.10
55347;BME280;41218;55.700;38.270;2022-09-16T05:27:37;98397.50;;;10.48;73.15
55347;BME280;41218;55.700;38.270;2022-09-16T05:32:38;98395.09;;;10.60;73.18
55347;BME280;41218;55.700;38.270;2022-09-16T05:37:38;98408.03;;;10.74;73.44
55347;BME280;41218;55.700;38.270;2022-09-16T05:42:38;98402.81;;;10.87;73.45
55347;BME280;41218;55.700;38.270;2022-09-16T05:47:39;98395.22;;;10.98;73.60
55347;BME280;41218;55.700;38.270;2022-09-16T05:52:39;98391.97;;;11.14;73.67
55347;BME280;41218;55.700;38.270;2022-09-16T05:57:40;98389.84;;;11.29;73.61
55347;BME280;41218;55.700;38.270;2022-09-16T06:02:41;98393.72;;;11.42;73.50
55347;BME280;41218;55.700;38.270;2022-09-16T06:07:41;98380.19;;;11.52;73.57
55347;BME280;41218;55.700;38.270;2022-09-16T06:12:42;98380.53;;;11.57;73.56
55347;BME280;41218;55.700;38.270;2022-09-16T06:17:42;98382.03;;;11.66;73.67
55347;BME280;41218;55.700;38.270;2022-09-16T06:22:43;98378.00;;;11.74;73.88
55347;BME280;41218;55.700;38.270;2022-09-16T06:27:44;98373.97;;;11.82;73.58
55347;BME280;41218;55.700;38.270;2022-09-16T06:32:44;98379.44;;;11.86;73.63
55347;BME280;41218;55.700;38.270;2022-09-16T06:37:45;98372.25;;;11.95;73.74
55347;BME280;41218;55.700;38.270;2022-09-16T06:42:45;98377.66;;;12.06;73.74
55347;BME280;41218;55.700;38.270;2022-09-16T06:47:46;98369.19;;;12.20;73.68
55347;BME280;41218;55.700;38.270;2022-09-16T06:52:49;98360.81;;;12.28;73.76
55347;BME280;41218;55.700;38.270;2022-09-16T06:57:50;98362.25;;;12.39;73.61
55347;BME280;41218;55.700;38.270;2022-09-16T07:02:50;98353.78;;;12.50;73.50
55347;BME280;41218;55.700;38.270;2022-09-16T07:07:51;98351.31;;;12.56;73.41
55347;BME280;41218;55.700;38.270;2022-09-16T07:12:52;98359.47;;;12.67;73.44
55347;BME280;41218;55.700;38.270;2022-09-16T07:17:53;98363.34;;;12.73;73.28
55347;BME280;41218;55.700;38.270;2022-09-16T07:22:54;98353.72;;;12.81;73.28
55347;BME280;41218;55.700;38.270;2022-09-16T07:27:55;98348.03;;;12.92;73.13
55347;BME280;41218;55.700;38.270;2022-09-16T07:32:56;98342.78;;;12.97;73.04
55347;BME280;41218;55.700;38.270;2022-09-16T07:37:59;98351.72;;;13.09;73.05
55347;BME280;41218;55.700;38.270;2022-09-16T07:42:59;98350.41;;;13.17;72.92
55347;BME280;41218;55.700;38.270;2022-09-16T07:48:00;98337.56;;;13.27;72.86
55347;BME280;41218;55.700;38.270;2022-09-16T07:53:00;98331.91;;;13.34;72.79
55347;BME280;41218;55.700;38.270;2022-09-16T07:58:01;98332.56;;;13.41;72.77
55347;BME280;41218;55.700;38.270;2022-09-16T08:03:02;98326.91;;;13.49;72.56
55347;BME280;41218;55.700;38.270;2022-09-16T08:08:02;98321.16;;;13.59;72.56
55347;BME280;41218;55.700;38.270;2022-09-16T08:13:05;98312.25;;;13.68;72.32
55347;BME280;41218;55.700;38.270;2022-09-16T08:18:06;98308.22;;;13.73;72.17
55347;BME280;41218;55.700;38.270;2022-09-16T08:23:06;98299.38;;;13.78;72.08
55347;BME280;41218;55.700;38.270;2022-09-16T08:28:14;98300.78;;;13.86;72.13
55347;BME280;41218;55.700;38.270;2022-09-16T08:33:15;98306.13;;;13.97;71.98
55347;BME280;41218;55.700;38.270;2022-09-16T08:38:20;98299.94;;;14.09;71.73
55347;BME280;41218;55.700;38.270;2022-09-16T08:43:42;98294.84;;;14.24;71.69
55347;BME280;41218;55.700;38.270;2022-09-16T08:48:59;98296.19;;;14.36;71.58
55347;BME280;41218;55.700;38.270;2022-09-16T08:54:05;98278.22;;;14.40;71.02
55347;BME280;41218;55.700;38.270;2022-09-16T08:59:13;98288.22;;;14.54;70.92
55347;BME280;41218;55.700;38.270;2022-09-16T09:04:14;98291.66;;;14.62;70.84
55347;BME280;41218;55.700;38.270;2022-09-16T09:09:27;98279.16;;;14.70;70.63
55347;BME280;41218;55.700;38.270;2022-09-16T09:30:33;98274.44;;;15.00;70.44
55347;BME280;41218;55.700;38.270;2022-09-16T09:46:12;98267.78;;;15.27;69.79
55347;BME280;41218;55.700;38.270;2022-09-16T09:51:25;98265.19;;;15.36;69.81
55347;BME280;41218;55.700;38.270;2022-09-16T09:56:44;98258.53;;;15.46;69.50
55347;BME280;41218;55.700;38.270;2022-09-16T10:01:45;98247.00;;;15.60;69.54
55347;BME280;41218;55.700;38.270;2022-09-16T10:06:47;98235.50;;;15.75;69.35
55347;BME280;41218;55.700;38.270;2022-09-16T10:11:51;98229.31;;;15.96;69.13
55347;BME280;41218;55.700;38.270;2022-09-16T10:16:54;98217.16;;;16.16;68.85
55347;BME280;41218;55.700;38.270;2022-09-16T10:22:10;98225.63;;;16.38;68.17
55347;BME280;41218;55.700;38.270;2022-09-16T10:27:24;98214.16;;;16.49;68.11
55347;BME280;41218;55.700;38.270;2022-09-16T10:32:26;98211.34;;;16.61;67.97
55347;BME280;41218;55.700;38.270;2022-09-16T10:37:26;98205.56;;;16.69;67.56
55347;BME280;41218;55.700;38.270;2022-09-16T10:42:28;98198.72;;;16.70;67.48
55347;BME280;41218;55.700;38.270;2022-09-16T10:47:31;98191.69;;;16.78;67.37
55347;BME280;41218;55.700;38.270;2022-09-16T10:52:44;98181.75;;;16.90;67.02
55347;BME280;41218;55.700;38.270;2022-09-16T10:57:46;98168.19;;;17.01;66.94
55347;BME280;41218;55.700;38.270;2022-09-16T11:03:10;98172.31;;;17.09;66.43
55347;BME280;41218;55.700;38.270;2022-09-16T11:14:00;98153.09;;;17.11;64.80
55347;BME280;41218;55.700;38.270;2022-09-16T11:19:11;98136.81;;;17.10;64.27
55347;BME280;41218;55.700;38.270;2022-09-16T11:24:48;98139.91;;;17.12;64.11
55347;BME280;41218;55.700;38.270;2022-09-16T11:46:03;98113.56;;;17.13;64.00
55347;BME280;41218;55.700;38.270;2022-09-16T12:01:42;98121.34;;;17.18;63.48
55347;BME280;41218;55.700;38.270;2022-09-16T12:12:25;98111.88;;;17.15;63.03
55347;BME280;41218;55.700;38.270;2022-09-16T12:17:38;98096.16;;;17.09;63.21
55347;BME280;41218;55.700;38.270;2022-09-16T12:22:44;98092.25;;;17.06;63.20
55347;BME280;41218;55.700;38.270;2022-09-16T12:33:09;98077.97;;;17.04;62.68
55347;BME280;41218;55.700;38.270;2022-09-16T12:38:17;98088.69;;;17.06;62.60
55347;BME280;41218;55.700;38.270;2022-09-16T13:04:22;98071.66;;;16.91;62.83
55347;BME280;41218;55.700;38.270;2022-09-16T13:09:28;98066.25;;;16.87;62.76
55347;BME280;41218;55.700;38.270;2022-09-16T13:14:43;98065.59;;;16.83;62.79
55347;BME280;41218;55.700;38.270;2022-09-16T13:19:49;98067.13;;;16.84;62.71
55347;BME280;41218;55.700;38.270;2022-09-16T13:40:31;98050.03;;;16.60;64.29
55347;BME280;41218;55.700;38.270;2022-09-16T13:50:37;98053.97;;;16.50;65.05
55347;BME280;41218;55.700;38.270;2022-09-16T13:55:40;98045.97;;;16.39;65.50
55347;BME280;41218;55.700;38.270;2022-09-16T14:01:32;98051.88;;;16.41;66.24
55347;BME280;41218;55.700;38.270;2022-09-16T14:11:44;98048.66;;;16.30;67.15
55347;BME280;41218;55.700;38.270;2022-09-16T14:16:48;98054.16;;;16.20;66.54
55347;BME280;41218;55.700;38.270;2022-09-16T14:22:11;98043.00;;;16.20;67.09
55347;BME280;41218;55.700;38.270;2022-09-16T14:32:29;98057.44;;;16.06;67.03
55347;BME280;41218;55.700;38.270;2022-09-16T14:37:31;98034.25;;;15.96;67.33
55347;BME280;41218;55.700;38.270;2022-09-16T14:42:31;98043.16;;;15.91;67.17
55347;BME280;41218;55.700;38.270;2022-09-16T14:47:35;98044.06;;;15.88;67.29
55347;BME280;41218;55.700;38.270;2022-09-16T14:52:37;98036.72;;;15.81;67.28
55347;BME280;41218;55.700;38.270;2022-09-16T14:57:38;98026.47;;;15.78;67.36
55347;BME280;41218;55.700;38.270;2022-09-16T15:07:56;98041.81;;;15.70;67.25
55347;BME280;41218;55.700;38.270;2022-09-16T15:13:11;98045.94;;;15.66;67.63
55347;BME280;41218;55.700;38.270;2022-09-16T15:18:22;98055.28;;;15.59;67.99
55347;BME280;41218;55.700;38.270;2022-09-16T15:23:26;98043.72;;;15.48;67.69
55347;BME280;41218;55.700;38.270;2022-09-16T15:28:28;98045.50;;;15.41;68.04
55347;BME280;41218;55.700;38.270;2022-09-16T15:33:38;98033.13;;;15.42;68.03
55347;BME280;41218;55.700;38.270;2022-09-16T15:38:40;98037.59;;;15.40;67.75
55347;BME280;41218;55.700;38.270;2022-09-16T15:43:43;98035.22;;;15.38;67.92
55347;BME280;41218;55.700;38.270;2022-09-16T15:48:49;98019.31;;;15.26;67.91
55347;BME280;41218;55.700;38.270;2022-09-16T15:53:50;98041.13;;;15.28;67.77
55347;BME280;41218;55.700;38.270;2022-09-16T15:59:00;98034.22;;;15.19;68.45
55347;BME280;41218;55.700;38.270;2022-09-16T16:04:04;98029.84;;;15.18;68.22
55347;BME280;41218;55.700;38.270;2022-09-16T16:09:06;98023.63;;;15.14;68.32
55347;BME280;41218;55.700;38.270;2022-09-16T16:14:31;98030.19;;;15.08;68.27
55347;BME280;41218;55.700;38.270;2022-09-16T16:19:32;98021.25;;;15.00;68.33
55347;BME280;41218;55.700;38.270;2022-09-16T16:24:33;98021.16;;;14.91;68.38
55347;BME280;41218;55.700;38.270;2022-09-16T16:29:34;98007.84;;;14.82;68.43
55347;BME280;41218;55.700;38.270;2022-09-16T16:34:39;98012.91;;;14.87;68.60
55347;BME280;41218;55.700;38.270;2022-09-16T16:39:40;98013.88;;;14.80;68.42
55347;BME280;41218;55.700;38.270;2022-09-16T16:44:41;98010.75;;;14.78;68.26
55347;BME280;41218;55.700;38.270;2022-09-16T16:49:42;97992.38;;;14.68;68.25
55347;BME280;41218;55.700;38.270;2022-09-16T16:54:42;97992.25;;;14.72;68.64
55347;BME280;41218;55.700;38.270;2022-09-16T16:59:43;97983.59;;;14.70;68.52
55347;BME280;41218;55.700;38.270;2022-09-16T17:04:44;97973.88;;;14.61;68.56
55347;BME280;41218;55.700;38.270;2022-09-16T17:09:44;97981.88;;;14.59;68.60
55347;BME280;41218;55.700;38.270;2022-09-16T17:14:45;97969.28;;;14.55;68.54
55347;BME280;41218;55.700;38.270;2022-09-16T17:19:46;97985.13;;;14.58;69.15
55347;BME280;41218;55.700;38.270;2022-09-16T17:24:47;97978.84;;;14.54;68.55
55347;BME280;41218;55.700;38.270;2022-09-16T17:29:48;97972.84;;;14.55;68.69
55347;BME280;41218;55.700;38.270;2022-09-16T17:34:48;97960.34;;;14.47;68.91
55347;BME280;41218;55.700;38.270;2022-09-16T17:39:49;97965.03;;;14.50;68.97
55347;BME280;41218;55.700;38.270;2022-09-16T17:44:51;97949.88;;;14.38;68.93
55347;BME280;41218;55.700;38.270;2022-09-16T17:49:52;97965.13;;;14.47;68.96
55347;BME280;41218;55.700;38.270;2022-09-16T17:59:56;97958.91;;;14.42;69.03
55347;BME280;41218;55.700;38.270;2022-09-16T18:04:57;97954.88;;;14.43;68.91
55347;BME280;41218;55.700;38.270;2022-09-16T18:09:58;97947.44;;;14.40;69.10
55347;BME280;41218;55.700;38.270;2022-09-16T18:14:59;97945.88;;;14.39;69.16
55347;BME280;41218;55.700;38.270;2022-09-16T18:20:00;97950.31;;;14.37;69.23
55347;BME280;41218;55.700;38.270;2022-09-16T18:25:01;97949.13;;;14.38;69.17
55347;BME280;41218;55.700;38.270;2022-09-16T18:30:04;97946.16;;;14.29;69.41
55347;BME280;41218;55.700;38.270;2022-09-16T18:35:05;97932.78;;;14.40;69.45
55347;BME280;41218;55.700;38.270;2022-09-16T18:40:06;97931.06;;;14.30;69.26
55347;BME280;41218;55.700;38.270;2022-09-16T18:45:07;97937.84;;;14.29;69.29
55347;BME280;41218;55.700;38.270;2022-09-16T18:50:08;97926.53;;;14.36;69.47
55347;BME280;41218;55.700;38.270;2022-09-16T18:55:09;97923.25;;;14.25;69.21
55347;BME280;41218;55.700;38.270;2022-09-16T19:00:10;97926.25;;;14.17;69.54
55347;BME280;41218;55.700;38.270;2022-09-16T19:05:11;97924.25;;;14.18;69.36
55347;BME280;41218;55.700;38.270;2022-09-16T19:10:12;97925.28;;;14.24;69.65
55347;BME280;41218;55.700;38.270;2022-09-16T19:15:13;97937.59;;;14.23;69.33
55347;BME280;41218;55.700;38.270;2022-09-16T19:20:14;97929.81;;;14.18;69.51
55347;BME280;41218;55.700;38.270;2022-09-16T19:25:15;97928.22;;;14.17;69.60
55347;BME280;41218;55.700;38.270;2022-09-16T19:30:16;97927.53;;;14.13;69.84
55347;BME280;41218;55.700;38.270;2022-09-16T19:35:17;97940.16;;;14.17;69.86
55347;BME280;41218;55.700;38.270;2022-09-16T19:40:18;97939.34;;;14.17;69.82
55347;BME280;41218;55.700;38.270;2022-09-16T19:45:19;97932.75;;;14.11;70.21
55347;BME280;41218;55.700;38.270;2022-09-16T19:50:20;97939.13;;;14.11;70.33
55347;BME280;41218;55.700;38.270;2022-09-16T19:55:21;97933.66;;;14.08;70.38
55347;BME280;41218;55.700;38.270;2022-09-16T20:00:21;97928.88;;;14.08;70.28
55347;BME280;41218;55.700;38.270;2022-09-16T20:05:22;97944.34;;;14.09;70.02
55347;BME280;41218;55.700;38.270;2022-09-16T20:10:23;97944.00;;;14.07;70.24
55347;BME280;41218;55.700;38.270;2022-09-16T20:15:23;97954.06;;;14.01;70.07
55347;BME280;41218;55.700;38.270;2022-09-16T20:20:24;97957.38;;;13.96;70.24
55347;BME280;41218;55.700;38.270;2022-09-16T20:25:24;97965.44;;;13.90;70.23
55347;BME280;41218;55.700;38.270;2022-09-16T20:30:25;97957.31;;;13.83;70.27
55347;BME280;41218;55.700;38.270;2022-09-16T20:35:31;97969.69;;;13.78;70.30
55347;BME280;41218;55.700;38.270;2022-09-16T20:40:33;97967.81;;;13.75;70.32
55347;BME280;41218;55.700;38.270;2022-09-16T20:45:34;97980.22;;;13.71;70.35
55347;BME280;41218;55.700;38.270;2022-09-16T20:50:36;97987.94;;;13.63;70.36
55347;BME280;41218;55.700;38.270;2022-09-16T20:55:40;97995.56;;;13.59;70.20
55347;BME280;41218;55.700;38.270;2022-09-16T21:00:40;97995.66;;;13.55;70.04
55347;BME280;41218;55.700;38.270;2022-09-16T21:05:41;98004.94;;;13.49;70.02
55347;BME280;41218;55.700;38.270;2022-09-16T21:10:41;98012.56;;;13.45;70.08
55347;BME280;41218;55.700;38.270;2022-09-16T21:15:53;98020.63;;;13.39;70.34
55347;BME280;41218;55.700;38.270;2022-09-16T21:21:10;98012.00;;;13.33;70.12
55347;BME280;41218;55.700;38.270;2022-09-16T21:26:14;98013.66;;;13.31;69.98
55347;BME280;41218;55.700;38.270;2022-09-16T21:31:15;98018.06;;;13.28;70.13
55347;BME280;41218;55.700;38.270;2022-09-16T21:36:18;98017.34;;;13.24;70.02
55347;BME280;41218;55.700;38.270;2022-09-16T21:41:20;98021.41;;;13.19;70.46
55347;BME280;41218;55.700;38.270;2022-09-16T21:46:26;98022.69;;;13.15;70.30
55347;BME280;41218;55.700;38.270;2022-09-16T21:51:29;98024.41;;;13.09;69.99
55347;BME280;41218;55.700;38.270;2022-09-16T21:56:38;98031.25;;;13.04;69.89
55347;BME280;41218;55.700;38.270;2022-09-16T22:01:39;98021.41;;;12.99;69.91
55347;BME280;41218;55.700;38.270;2022-09-16T22:06:40;98020.00;;;12.91;70.06
55347;BME280;41218;55.700;38.270;2022-09-16T22:11:41;98030.75;;;12.89;69.87
55347;BME280;41218;55.700;38.270;2022-09-16T22:16:41;98030.56;;;12.80;69.65
55347;BME280;41218;55.700;38.270;2022-09-16T22:21:44;98042.47;;;12.77;69.74
55347;BME280;41218;55.700;38.270;2022-09-16T22:26:46;98048.19;;;12.70;69.55
55347;BME280;41218;55.700;38.270;2022-09-16T22:31:47;98047.94;;;12.60;69.73
55347;BME280;41218;55.700;38.270;2022-09-16T22:36:48;98054.41;;;12.54;69.60
55347;BME280;41218;55.700;38.270;2022-09-16T22:41:48;98071.03;;;12.54;69.43
55347;BME280;41218;55.700;38.270;2022-09-16T22:46:49;98069.25;;;12.43;69.48
55347;BME280;41218;55.700;38.270;2022-09-16T22:51:49;98072.84;;;12.40;69.36
55347;BME280;41218;55.700;38.270;2022-09-16T22:56:50;98088.28;;;12.41;69.36
55347;BME280;41218;55.700;38.270;2022-09-16T23:01:50;98090.75;;;12.36;69.52
55347;BME280;41218;55.700;38.270;2022-09-16T23:06:51;98103.09;;;12.31;69.50
55347;BME280;41218;55.700;38.270;2022-09-16T23:11:52;98096.84;;;12.27;69.43
55347;BME280;41218;55.700;38.270;2022-09-16T23:16:53;98105.63;;;12.22;69.42
55347;BME280;41218;55.700;38.270;2022-09-16T23:21:53;98103.75;;;12.15;69.35
55347;BME280;41218;55.700;38.270;2022-09-16T23:26:54;98107.34;;;12.12;69.37
55347;BME280;41218;55.700;38.270;2022-09-16T23:31:55;98111.44;;;12.04;69.12
55347;BME280;41218;55.700;38.270;2022-09-16T23:36:56;98118.88;;;12.11;69.31
55347;BME280;41218;55.700;38.270;2022-09-16T23:41:56;98120.25;;;11.99;69.37
55347;BME280;41218;55.700;38.270;2022-09-16T23:46:57;98116.25;;;12.00;69.09
55347;BME280;41218;55.700;38.270;2022-09-16T23:51:58;98109.72;;;11.87;68.94
55347;BME280;41218;55.700;38.270;2022-09-16T23:56:58;98107.78;;;11.83;69.13
